TimeEDT,TemperatureF,Dew PointF,Humidity,Sea Level PressureIn,VisibilityMPH,Wind Direction,Wind SpeedMPH,Gust SpeedMPH,PrecipitationIn,Events,Conditions,WindDirDegrees,DateUTC
12:52 AM,51.1,37.9,61,30.26,10.0,NE,5.8,-,N/A,,Overcast,40,2013-04-23 04:52:00
1:52 AM,48.9,37.9,66,30.26,10.0,North,5.8,-,N/A,,Overcast,350,2013-04-23 05:52:00
2:52 AM,46.0,37.9,73,30.24,10.0,North,4.6,-,N/A,,Partly Cloudy,360,2013-04-23 06:52:00
3:52 AM,48.2,39.2,71,30.23,10.0,North,5.8,-,N/A,,Overcast,360,2013-04-23 07:52:00
4:35 AM,48.2,39.2,71,30.23,10.0,NNE,5.8,-,N/A,,Overcast,20,2013-04-23 08:35:00
4:52 AM,48.9,39.9,71,30.23,10.0,North,5.8,-,N/A,,Overcast,10,2013-04-23 08:52:00
5:52 AM,50.0,41.0,71,30.22,10.0,North,6.9,-,N/A,,Overcast,10,2013-04-23 09:52:00
6:52 AM,51.1,41.0,68,30.23,10.0,NNE,5.8,-,N/A,,Overcast,20,2013-04-23 10:52:00
7:52 AM,51.1,41.0,68,30.25,10.0,NNE,8.1,-,N/A,,Overcast,20,2013-04-23 11:52:00
8:23 AM,51.8,42.8,71,30.24,10.0,NE,10.4,19.6,N/A,,Overcast,40,2013-04-23 12:23:00
8:52 AM,53.1,43.0,69,30.25,10.0,NNE,9.2,-,N/A,,Overcast,30,2013-04-23 12:52:00
9:52 AM,55.0,44.1,67,30.26,10.0,NNE,9.2,-,N/A,,Overcast,20,2013-04-23 13:52:00
10:52 AM,57.9,45.0,62,30.28,10.0,Variable,4.6,-,N/A,,Overcast,0,2013-04-23 14:52:00
11:52 AM,61.0,46.0,58,30.26,10.0,Variable,5.8,-,N/A,,Mostly Cloudy,0,2013-04-23 15:52:00
12:52 PM,62.1,48.0,60,30.22,10.0,ESE,9.2,-,N/A,,Mostly Cloudy,120,2013-04-23 16:52:00
1:52 PM,63.0,48.0,58,30.20,10.0,Variable,4.6,-,N/A,,Mostly Cloudy,0,2013-04-23 17:52:00
2:52 PM,66.9,48.9,52,30.18,10.0,Variable,3.5,-,N/A,,Scattered Clouds,0,2013-04-23 18:52:00
3:52 PM,68.0,48.9,50,30.15,10.0,Variable,5.8,-,N/A,,Scattered Clouds,0,2013-04-23 19:52:00
4:52 PM,68.0,48.0,49,30.12,10.0,SSE,5.8,-,N/A,,Scattered Clouds,150,2013-04-23 20:52:00
5:52 PM,68.0,50.0,52,30.11,10.0,ESE,8.1,-,N/A,,Scattered Clouds,120,2013-04-23 21:52:00
6:52 PM,66.9,48.9,52,30.12,10.0,SE,5.8,-,N/A,,Clear,140,2013-04-23 22:52:00
7:52 PM,63.0,50.0,63,30.13,10.0,South,4.6,-,N/A,,Partly Cloudy,180,2013-04-23 23:52:00
8:52 PM,63.0,51.1,65,30.12,10.0,SE,10.4,-,N/A,,Scattered Clouds,130,2013-04-24 00:52:00
9:52 PM,61.0,51.1,70,30.14,10.0,SSE,8.1,-,N/A,,Partly Cloudy,150,2013-04-24 01:52:00
10:52 PM,60.1,52.0,75,30.14,10.0,SSE,8.1,-,N/A,,Partly Cloudy,150,2013-04-24 02:52:00
11:52 PM,57.0,52.0,83,30.14,10.0,SSE,6.9,-,N/A,,Partly Cloudy,150,2013-04-24 03:52:00